sensor_id;sensor_type;location;lat;lon;timestamp;P1;durP1;ratioP1;P2;durP2;ratioP2
50789;SDS011;37287;47.554;7.844;2022-09-06T00:00:24;4.10;;;2.67;;
50789;SDS011;37287;47.554;7.844;2022-09-06T00:02:53;3.83;;;2.60;;
50789;SDS011;37287;47.554;7.844;2022-09-06T00:05:20;6.97;;;2.88;;
50789;SDS011;37287;47.554;7.844;2022-09-06T00:07:50;4.97;;;2.92;;
50789;SDS011;37287;47.554;7.844;2022-09-06T00:10:17;3.35;;;2.63;;
50789;SDS011;37287;47.554;7.844;2022-09-06T00:12:49;4.30;;;2.63;;
50789;SDS011;37287;47.554;7.844;2022-09-06T00:15:16;4.15;;;2.30;;
50789;SDS011;37287;47.554;7.844;2022-09-06T00:17:49;5.45;;;2.60;;
50789;SDS011;37287;47.554;7.844;2022-09-06T00:20:16;4.97;;;2.55;;
50789;SDS011;37287;47.554;7.844;2022-09-06T00:22:43;3.70;;;2.55;;
50789;SDS011;37287;47.554;7.844;2022-09-06T00:25:11;3.92;;;2.92;;
50789;SDS011;37287;47.554;7.844;2022-09-06T00:27:38;4.25;;;2.88;;
50789;SDS011;37287;47.554;7.844;2022-09-06T00:30:09;5.07;;;2.78;;
50789;SDS011;37287;47.554;7.844;2022-09-06T00:32:36;3.85;;;2.90;;
50789;SDS011;37287;47.554;7.844;2022-09-06T00:35:03;4.22;;;3.30;;
50789;SDS011;37287;47.554;7.844;2022-09-06T00:37:30;4.03;;;2.90;;
50789;SDS011;37287;47.554;7.844;2022-09-06T00:40:03;3.25;;;2.80;;
50789;SDS011;37287;47.554;7.844;2022-09-06T00:42:30;5.82;;;2.95;;
50789;SDS011;37287;47.554;7.844;2022-09-06T00:44:56;5.40;;;2.88;;
50789;SDS011;37287;47.554;7.844;2022-09-06T00:47:24;4.07;;;2.75;;
50789;SDS011;37287;47.554;7.844;2022-09-06T00:49:52;3.22;;;2.78;;
50789;SDS011;37287;47.554;7.844;2022-09-06T00:52:22;4.70;;;3.00;;
50789;SDS011;37287;47.554;7.844;2022-09-06T00:54:52;5.43;;;2.75;;
50789;SDS011;37287;47.554;7.844;2022-09-06T00:57:19;2.85;;;2.50;;
50789;SDS011;37287;47.554;7.844;2022-09-06T00:59:46;9.70;;;2.90;;
50789;SDS011;37287;47.554;7.844;2022-09-06T01:02:15;3.47;;;2.90;;
50789;SDS011;37287;47.554;7.844;2022-09-06T01:04:42;2.92;;;2.55;;
50789;SDS011;37287;47.554;7.844;2022-09-06T01:07:21;3.80;;;2.78;;
50789;SDS011;37287;47.554;7.844;2022-09-06T01:34:38;3.15;;;2.42;;
50789;SDS011;37287;47.554;7.844;2022-09-06T01:37:11;2.72;;;2.45;;
50789;SDS011;37287;47.554;7.844;2022-09-06T01:39:43;8.10;;;2.75;;
50789;SDS011;37287;47.554;7.844;2022-09-06T01:42:20;4.57;;;2.63;;
50789;SDS011;37287;47.554;7.844;2022-09-06T01:44:54;5.35;;;2.70;;
50789;SDS011;37287;47.554;7.844;2022-09-06T01:52:33;5.07;;;2.80;;
50789;SDS011;37287;47.554;7.844;2022-09-06T02:03:46;6.10;;;2.95;;
50789;SDS011;37287;47.554;7.844;2022-09-06T02:08:56;3.58;;;2.58;;
50789;SDS011;37287;47.554;7.844;2022-09-06T02:11:33;3.00;;;2.70;;
50789;SDS011;37287;47.554;7.844;2022-09-06T02:14:10;2.55;;;2.35;;
50789;SDS011;37287;47.554;7.844;2022-09-06T02:16:43;3.70;;;2.50;;
50789;SDS011;37287;47.554;7.844;2022-09-06T02:22:07;2.50;;;2.30;;
50789;SDS011;37287;47.554;7.844;2022-09-06T02:24:37;5.00;;;3.15;;
50789;SDS011;37287;47.554;7.844;2022-09-06T02:27:09;9.82;;;3.28;;
50789;SDS011;37287;47.554;7.844;2022-09-06T02:29:37;7.03;;;2.92;;
50789;SDS011;37287;47.554;7.844;2022-09-06T02:32:08;5.35;;;3.08;;
50789;SDS011;37287;47.554;7.844;2022-09-06T02:37:14;3.03;;;2.72;;
50789;SDS011;37287;47.554;7.844;2022-09-06T02:39:42;5.13;;;2.72;;
50789;SDS011;37287;47.554;7.844;2022-09-06T02:42:17;7.90;;;3.28;;
50789;SDS011;37287;47.554;7.844;2022-09-06T02:44:44;4.30;;;3.00;;
50789;SDS011;37287;47.554;7.844;2022-09-06T02:47:10;4.07;;;3.20;;
50789;SDS011;37287;47.554;7.844;2022-09-06T02:49:37;3.35;;;3.05;;
50789;SDS011;37287;47.554;7.844;2022-09-06T02:52:04;5.88;;;2.60;;
50789;SDS011;37287;47.554;7.844;2022-09-06T02:54:33;7.13;;;2.70;;
50789;SDS011;37287;47.554;7.844;2022-09-06T02:56:59;11.48;;;3.45;;
50789;SDS011;37287;47.554;7.844;2022-09-06T02:59:26;5.10;;;3.75;;
50789;SDS011;37287;47.554;7.844;2022-09-06T03:01:53;6.18;;;3.65;;
50789;SDS011;37287;47.554;7.844;2022-09-06T03:04:19;3.95;;;3.35;;
50789;SDS011;37287;47.554;7.844;2022-09-06T03:06:46;3.97;;;3.25;;
50789;SDS011;37287;47.554;7.844;2022-09-06T03:09:13;4.60;;;3.20;;
50789;SDS011;37287;47.554;7.844;2022-09-06T03:11:40;4.93;;;3.38;;
50789;SDS011;37287;47.554;7.844;2022-09-06T03:14:06;4.63;;;3.00;;
50789;SDS011;37287;47.554;7.844;2022-09-06T03:16:33;6.88;;;3.42;;
50789;SDS011;37287;47.554;7.844;2022-09-06T03:19:01;3.53;;;3.15;;
50789;SDS011;37287;47.554;7.844;2022-09-06T03:21:28;7.72;;;3.75;;
50789;SDS011;37287;47.554;7.844;2022-09-06T03:23:57;5.78;;;3.67;;
50789;SDS011;37287;47.554;7.844;2022-09-06T03:28:57;8.93;;;3.75;;
50789;SDS011;37287;47.554;7.844;2022-09-06T03:31:24;4.95;;;3.45;;
50789;SDS011;37287;47.554;7.844;2022-09-06T03:33:51;9.98;;;3.85;;
50789;SDS011;37287;47.554;7.844;2022-09-06T03:36:22;4.30;;;3.85;;
50789;SDS011;37287;47.554;7.844;2022-09-06T03:38:48;10.70;;;3.83;;
50789;SDS011;37287;47.554;7.844;2022-09-06T03:41:16;8.07;;;4.40;;
50789;SDS011;37287;47.554;7.844;2022-09-06T03:43:44;7.25;;;3.90;;
50789;SDS011;37287;47.554;7.844;2022-09-06T03:46:11;4.22;;;3.40;;
50789;SDS011;37287;47.554;7.844;2022-09-06T03:48:37;8.48;;;4.10;;
50789;SDS011;37287;47.554;7.844;2022-09-06T03:51:09;5.53;;;3.65;;
50789;SDS011;37287;47.554;7.844;2022-09-06T03:53:35;3.13;;;2.83;;
50789;SDS011;37287;47.554;7.844;2022-09-06T03:56:02;3.00;;;2.80;;
50789;SDS011;37287;47.554;7.844;2022-09-06T03:58:29;6.90;;;2.95;;
50789;SDS011;37287;47.554;7.844;2022-09-06T04:01:00;5.80;;;3.25;;
50789;SDS011;37287;47.554;7.844;2022-09-06T04:03:33;4.68;;;3.35;;
50789;SDS011;37287;47.554;7.844;2022-09-06T04:06:00;7.63;;;3.20;;
50789;SDS011;37287;47.554;7.844;2022-09-06T04:08:27;5.00;;;3.05;;
50789;SDS011;37287;47.554;7.844;2022-09-06T04:10:55;3.08;;;2.75;;
50789;SDS011;37287;47.554;7.844;2022-09-06T04:13:22;3.88;;;2.80;;
50789;SDS011;37287;47.554;7.844;2022-09-06T04:15:50;7.35;;;3.40;;
50789;SDS011;37287;47.554;7.844;2022-09-06T04:18:29;4.70;;;3.20;;
50789;SDS011;37287;47.554;7.844;2022-09-06T04:20:57;3.10;;;2.78;;
50789;SDS011;37287;47.554;7.844;2022-09-06T04:23:24;4.72;;;3.10;;
50789;SDS011;37287;47.554;7.844;2022-09-06T04:25:56;4.00;;;3.10;;
50789;SDS011;37287;47.554;7.844;2022-09-06T04:28:24;5.55;;;3.10;;
50789;SDS011;37287;47.554;7.844;2022-09-06T04:30:53;3.85;;;3.10;;
50789;SDS011;37287;47.554;7.844;2022-09-06T04:33:29;6.28;;;3.03;;
50789;SDS011;37287;47.554;7.844;2022-09-06T04:35:57;3.65;;;2.75;;
50789;SDS011;37287;47.554;7.844;2022-09-06T04:38:38;4.82;;;2.85;;
50789;SDS011;37287;47.554;7.844;2022-09-06T04:41:08;2.90;;;2.58;;
50789;SDS011;37287;47.554;7.844;2022-09-06T04:43:36;3.50;;;3.20;;
50789;SDS011;37287;47.554;7.844;2022-09-06T04:46:08;3.20;;;2.90;;
50789;SDS011;37287;47.554;7.844;2022-09-06T04:48:43;4.00;;;2.80;;
50789;SDS011;37287;47.554;7.844;2022-09-06T04:51:11;2.60;;;2.40;;
50789;SDS011;37287;47.554;7.844;2022-09-06T04:53:42;2.80;;;2.60;;
50789;SDS011;37287;47.554;7.844;2022-09-06T04:56:14;3.75;;;2.53;;
50789;SDS011;37287;47.554;7.844;2022-09-06T04:58:43;6.45;;;2.65;;
50789;SDS011;37287;47.554;7.844;2022-09-06T05:01:11;3.35;;;2.70;;
50789;SDS011;37287;47.554;7.844;2022-09-06T05:03:37;4.38;;;3.10;;
50789;SDS011;37287;47.554;7.844;2022-09-06T05:06:07;2.85;;;2.40;;
50789;SDS011;37287;47.554;7.844;2022-09-06T05:08:46;3.88;;;2.88;;
50789;SDS011;37287;47.554;7.844;2022-09-06T05:11:13;4.97;;;2.85;;
50789;SDS011;37287;47.554;7.844;2022-09-06T05:13:42;2.83;;;2.63;;
50789;SDS011;37287;47.554;7.844;2022-09-06T05:16:10;4.10;;;2.78;;
50789;SDS011;37287;47.554;7.844;2022-09-06T05:18:43;5.78;;;3.35;;
50789;SDS011;37287;47.554;7.844;2022-09-06T05:21:10;9.18;;;3.45;;
50789;SDS011;37287;47.554;7.844;2022-09-06T05:23:36;10.20;;;3.72;;
50789;SDS011;37287;47.554;7.844;2022-09-06T05:26:05;13.52;;;3.60;;
50789;SDS011;37287;47.554;7.844;2022-09-06T05:28:32;7.82;;;3.50;;
50789;SDS011;37287;47.554;7.844;2022-09-06T05:31:04;12.23;;;3.55;;
50789;SDS011;37287;47.554;7.844;2022-09-06T05:33:33;6.20;;;3.08;;
50789;SDS011;37287;47.554;7.844;2022-09-06T05:36:01;3.50;;;2.95;;
50789;SDS011;37287;47.554;7.844;2022-09-06T05:38:31;3.95;;;3.00;;
50789;SDS011;37287;47.554;7.844;2022-09-06T05:40:58;4.10;;;3.08;;
50789;SDS011;37287;47.554;7.844;2022-09-06T05:43:24;4.05;;;2.97;;
50789;SDS011;37287;47.554;7.844;2022-09-06T05:45:51;6.10;;;3.70;;
50789;SDS011;37287;47.554;7.844;2022-09-06T05:48:23;7.72;;;3.30;;
50789;SDS011;37287;47.554;7.844;2022-09-06T05:51:03;6.18;;;3.70;;
50789;SDS011;37287;47.554;7.844;2022-09-06T05:53:32;5.30;;;3.25;;
50789;SDS011;37287;47.554;7.844;2022-09-06T05:55:59;6.15;;;3.78;;
50789;SDS011;37287;47.554;7.844;2022-09-06T05:58:26;5.05;;;3.00;;
50789;SDS011;37287;47.554;7.844;2022-09-06T06:01:07;5.85;;;2.90;;
50789;SDS011;37287;47.554;7.844;2022-09-06T06:03:53;4.95;;;3.20;;
50789;SDS011;37287;47.554;7.844;2022-09-06T06:06:22;5.20;;;3.03;;
50789;SDS011;37287;47.554;7.844;2022-09-06T06:08:51;6.53;;;3.20;;
50789;SDS011;37287;47.554;7.844;2022-09-06T06:11:17;3.75;;;3.00;;
50789;SDS011;37287;47.554;7.844;2022-09-06T06:13:46;4.68;;;3.30;;
50789;SDS011;37287;47.554;7.844;2022-09-06T06:16:13;4.57;;;2.83;;
50789;SDS011;37287;47.554;7.844;2022-09-06T06:18:42;8.48;;;3.22;;
50789;SDS011;37287;47.554;7.844;2022-09-06T06:21:19;5.00;;;3.53;;
50789;SDS011;37287;47.554;7.844;2022-09-06T06:23:54;15.35;;;3.70;;
50789;SDS011;37287;47.554;7.844;2022-09-06T06:26:24;16.20;;;4.00;;
50789;SDS011;37287;47.554;7.844;2022-09-06T06:28:53;6.53;;;2.72;;
50789;SDS011;37287;47.554;7.844;2022-09-06T06:31:20;6.32;;;3.15;;
50789;SDS011;37287;47.554;7.844;2022-09-06T06:33:48;4.22;;;3.05;;
50789;SDS011;37287;47.554;7.844;2022-09-06T06:38:42;6.28;;;3.42;;
50789;SDS011;37287;47.554;7.844;2022-09-06T06:41:11;11.40;;;3.83;;
50789;SDS011;37287;47.554;7.844;2022-09-06T06:43:39;9.68;;;3.58;;
50789;SDS011;37287;47.554;7.844;2022-09-06T06:46:12;3.28;;;2.97;;
50789;SDS011;37287;47.554;7.844;2022-09-06T06:48:41;6.17;;;3.30;;
50789;SDS011;37287;47.554;7.844;2022-09-06T06:51:09;4.68;;;3.47;;
50789;SDS011;37287;47.554;7.844;2022-09-06T06:53:38;3.30;;;3.00;;
50789;SDS011;37287;47.554;7.844;2022-09-06T06:56:15;6.70;;;3.58;;
50789;SDS011;37287;47.554;7.844;2022-09-06T06:58:50;6.13;;;3.78;;
50789;SDS011;37287;47.554;7.844;2022-09-06T07:01:19;6.25;;;3.33;;
50789;SDS011;37287;47.554;7.844;2022-09-06T07:03:47;5.57;;;3.60;;
50789;SDS011;37287;47.554;7.844;2022-09-06T07:06:14;4.80;;;3.55;;
50789;SDS011;37287;47.554;7.844;2022-09-06T07:08:42;5.22;;;3.65;;
50789;SDS011;37287;47.554;7.844;2022-09-06T07:11:10;6.43;;;3.90;;
50789;SDS011;37287;47.554;7.844;2022-09-06T07:13:38;6.03;;;3.22;;
50789;SDS011;37287;47.554;7.844;2022-09-06T07:16:14;4.57;;;3.20;;
50789;SDS011;37287;47.554;7.844;2022-09-06T07:21:14;3.88;;;3.00;;
50789;SDS011;37287;47.554;7.844;2022-09-06T07:24:03;3.92;;;2.92;;
50789;SDS011;37287;47.554;7.844;2022-09-06T07:26:35;3.45;;;3.00;;
50789;SDS011;37287;47.554;7.844;2022-09-06T07:29:05;6.38;;;3.38;;
50789;SDS011;37287;47.554;7.844;2022-09-06T07:31:40;4.30;;;3.57;;
50789;SDS011;37287;47.554;7.844;2022-09-06T07:34:26;7.10;;;3.33;;
50789;SDS011;37287;47.554;7.844;2022-09-06T07:37:00;4.05;;;3.30;;
50789;SDS011;37287;47.554;7.844;2022-09-06T07:39:27;6.65;;;3.10;;
50789;SDS011;37287;47.554;7.844;2022-09-06T07:41:53;7.35;;;3.13;;
50789;SDS011;37287;47.554;7.844;2022-09-06T07:44:20;6.45;;;3.65;;
50789;SDS011;37287;47.554;7.844;2022-09-06T07:46:47;8.23;;;3.55;;
50789;SDS011;37287;47.554;7.844;2022-09-06T07:49:13;4.28;;;3.38;;
50789;SDS011;37287;47.554;7.844;2022-09-06T07:51:42;8.20;;;3.83;;
50789;SDS011;37287;47.554;7.844;2022-09-06T07:54:09;9.43;;;3.75;;
50789;SDS011;37287;47.554;7.844;2022-09-06T07:56:56;6.82;;;4.25;;
50789;SDS011;37287;47.554;7.844;2022-09-06T07:59:24;8.75;;;6.28;;
50789;SDS011;37287;47.554;7.844;2022-09-06T08:01:50;8.80;;;5.35;;
50789;SDS011;37287;47.554;7.844;2022-09-06T08:04:18;9.77;;;5.10;;
50789;SDS011;37287;47.554;7.844;2022-09-06T08:06:46;10.30;;;5.32;;
50789;SDS011;37287;47.554;7.844;2022-09-06T08:09:34;9.80;;;5.60;;
50789;SDS011;37287;47.554;7.844;2022-09-06T08:12:01;10.23;;;5.88;;
50789;SDS011;37287;47.554;7.844;2022-09-06T08:14:33;10.48;;;6.25;;
50789;SDS011;37287;47.554;7.844;2022-09-06T08:17:00;10.43;;;6.60;;
50789;SDS011;37287;47.554;7.844;2022-09-06T08:19:27;9.15;;;5.68;;
50789;SDS011;37287;47.554;7.844;2022-09-06T08:21:54;7.70;;;5.10;;
50789;SDS011;37287;47.554;7.844;2022-09-06T08:24:27;10.40;;;4.97;;
50789;SDS011;37287;47.554;7.844;2022-09-06T08:26:54;6.55;;;4.38;;
50789;SDS011;37287;47.554;7.844;2022-09-06T08:29:21;6.55;;;3.88;;
50789;SDS011;37287;47.554;7.844;2022-09-06T08:31:47;6.22;;;4.00;;
50789;SDS011;37287;47.554;7.844;2022-09-06T08:34:14;5.05;;;3.80;;
50789;SDS011;37287;47.554;7.844;2022-09-06T08:36:41;8.25;;;3.92;;
50789;SDS011;37287;47.554;7.844;2022-09-06T08:39:08;6.72;;;3.58;;
50789;SDS011;37287;47.554;7.844;2022-09-06T08:44:29;10.60;;;4.38;;
50789;SDS011;37287;47.554;7.844;2022-09-06T08:47:24;6.68;;;3.50;;
50789;SDS011;37287;47.554;7.844;2022-09-06T08:49:51;4.38;;;3.20;;
50789;SDS011;37287;47.554;7.844;2022-09-06T09:00:11;5.25;;;3.20;;
50789;SDS011;37287;47.554;7.844;2022-09-06T09:02:44;7.22;;;3.30;;
50789;SDS011;37287;47.554;7.844;2022-09-06T09:05:27;7.45;;;3.50;;
50789;SDS011;37287;47.554;7.844;2022-09-06T09:10:47;6.05;;;3.10;;
50789;SDS011;37287;47.554;7.844;2022-09-06T09:13:27;7.53;;;3.53;;
50789;SDS011;37287;47.554;7.844;2022-09-06T09:15:59;6.07;;;2.95;;
50789;SDS011;37287;47.554;7.844;2022-09-06T09:18:33;7.38;;;2.85;;
50789;SDS011;37287;47.554;7.844;2022-09-06T09:21:03;7.20;;;3.25;;
50789;SDS011;37287;47.554;7.844;2022-09-06T09:23:31;5.18;;;2.40;;
50789;SDS011;37287;47.554;7.844;2022-09-06T09:26:08;10.70;;;3.42;;
50789;SDS011;37287;47.554;7.844;2022-09-06T09:29:15;7.03;;;3.25;;
50789;SDS011;37287;47.554;7.844;2022-09-06T09:34:30;7.47;;;3.17;;
50789;SDS011;37287;47.554;7.844;2022-09-06T09:37:12;8.25;;;3.28;;
50789;SDS011;37287;47.554;7.844;2022-09-06T09:40:12;7.50;;;3.28;;
50789;SDS011;37287;47.554;7.844;2022-09-06T09:42:51;6.43;;;3.33;;
50789;SDS011;37287;47.554;7.844;2022-09-06T09:45:26;12.63;;;4.13;;
50789;SDS011;37287;47.554;7.844;2022-09-06T09:47:54;6.55;;;3.88;;
50789;SDS011;37287;47.554;7.844;2022-09-06T09:50:29;5.10;;;3.33;;
50789;SDS011;37287;47.554;7.844;2022-09-06T09:53:08;5.10;;;3.20;;
50789;SDS011;37287;47.554;7.844;2022-09-06T09:55:36;8.90;;;3.08;;
50789;SDS011;37287;47.554;7.844;2022-09-06T09:58:05;7.50;;;3.20;;
50789;SDS011;37287;47.554;7.844;2022-09-06T10:00:37;8.80;;;3.28;;
50789;SDS011;37287;47.554;7.844;2022-09-06T10:03:15;7.43;;;3.63;;
50789;SDS011;37287;47.554;7.844;2022-09-06T10:05:58;5.78;;;3.70;;
50789;SDS011;37287;47.554;7.844;2022-09-06T10:08:29;6.38;;;3.20;;
50789;SDS011;37287;47.554;7.844;2022-09-06T10:11:00;9.02;;;3.63;;
50789;SDS011;37287;47.554;7.844;2022-09-06T10:13:28;10.23;;;3.20;;
50789;SDS011;37287;47.554;7.844;2022-09-06T10:15:56;8.63;;;3.05;;
50789;SDS011;37287;47.554;7.844;2022-09-06T10:18:33;8.95;;;3.00;;
50789;SDS011;37287;47.554;7.844;2022-09-06T10:21:14;5.57;;;3.30;;
50789;SDS011;37287;47.554;7.844;2022-09-06T10:24:01;7.28;;;3.10;;
50789;SDS011;37287;47.554;7.844;2022-09-06T10:26:49;7.18;;;2.78;;
50789;SDS011;37287;47.554;7.844;2022-09-06T10:29:33;6.88;;;2.65;;
50789;SDS011;37287;47.554;7.844;2022-09-06T10:32:39;9.40;;;3.45;;
50789;SDS011;37287;47.554;7.844;2022-09-06T10:35:29;8.85;;;3.17;;
50789;SDS011;37287;47.554;7.844;2022-09-06T10:40:38;9.73;;;3.40;;
50789;SDS011;37287;47.554;7.844;2022-09-06T10:43:16;6.47;;;2.80;;
50789;SDS011;37287;47.554;7.844;2022-09-06T10:45:51;6.75;;;3.22;;
50789;SDS011;37287;47.554;7.844;2022-09-06T10:48:30;7.28;;;3.15;;
50789;SDS011;37287;47.554;7.844;2022-09-06T10:51:02;11.43;;;3.35;;
50789;SDS011;37287;47.554;7.844;2022-09-06T10:53:54;7.82;;;3.20;;
50789;SDS011;37287;47.554;7.844;2022-09-06T10:56:42;6.47;;;3.20;;
50789;SDS011;37287;47.554;7.844;2022-09-06T11:02:03;4.07;;;2.78;;
50789;SDS011;37287;47.554;7.844;2022-09-06T11:04:40;7.03;;;3.38;;
50789;SDS011;37287;47.554;7.844;2022-09-06T11:07:29;6.50;;;3.33;;
50789;SDS011;37287;47.554;7.844;2022-09-06T11:09:59;13.00;;;3.30;;
50789;SDS011;37287;47.554;7.844;2022-09-06T11:15:10;6.22;;;3.45;;
50789;SDS011;37287;47.554;7.844;2022-09-06T11:17:45;5.63;;;3.10;;
50789;SDS011;37287;47.554;7.844;2022-09-06T11:23:03;9.27;;;3.75;;
50789;SDS011;37287;47.554;7.844;2022-09-06T11:28:46;7.50;;;2.97;;
50789;SDS011;37287;47.554;7.844;2022-09-06T11:31:20;4.38;;;2.60;;
50789;SDS011;37287;47.554;7.844;2022-09-06T11:34:26;4.47;;;2.65;;
50789;SDS011;37287;47.554;7.844;2022-09-06T11:36:57;3.72;;;2.38;;
50789;SDS011;37287;47.554;7.844;2022-09-06T11:45:40;6.97;;;3.15;;
50789;SDS011;37287;47.554;7.844;2022-09-06T11:51:00;8.90;;;3.03;;
50789;SDS011;37287;47.554;7.844;2022-09-06T11:56:21;7.75;;;3.15;;
50789;SDS011;37287;47.554;7.844;2022-09-06T11:58:58;6.72;;;3.00;;
50789;SDS011;37287;47.554;7.844;2022-09-06T12:01:32;15.75;;;3.47;;
50789;SDS011;37287;47.554;7.844;2022-09-06T12:04:01;8.40;;;3.40;;
50789;SDS011;37287;47.554;7.844;2022-09-06T12:06:37;8.10;;;2.88;;
50789;SDS011;37287;47.554;7.844;2022-09-06T12:09:25;6.25;;;2.63;;
50789;SDS011;37287;47.554;7.844;2022-09-06T12:11:57;7.35;;;2.83;;
50789;SDS011;37287;47.554;7.844;2022-09-06T12:14:30;6.55;;;2.72;;
50789;SDS011;37287;47.554;7.844;2022-09-06T12:28:22;5.68;;;2.30;;
50789;SDS011;37287;47.554;7.844;2022-09-06T12:30:52;5.82;;;2.20;;
50789;SDS011;37287;47.554;7.844;2022-09-06T12:33:22;10.32;;;2.50;;
50789;SDS011;37287;47.554;7.844;2022-09-06T12:36:10;7.43;;;2.33;;
50789;SDS011;37287;47.554;7.844;2022-09-06T12:38:39;5.13;;;2.20;;
50789;SDS011;37287;47.554;7.844;2022-09-06T12:41:18;5.40;;;2.65;;
50789;SDS011;37287;47.554;7.844;2022-09-06T12:43:50;7.13;;;2.22;;
50789;SDS011;37287;47.554;7.844;2022-09-06T12:46:17;7.00;;;2.83;;
50789;SDS011;37287;47.554;7.844;2022-09-06T12:48:57;6.70;;;2.60;;
50789;SDS011;37287;47.554;7.844;2022-09-06T12:51:33;8.27;;;2.92;;
50789;SDS011;37287;47.554;7.844;2022-09-06T12:54:03;9.30;;;2.80;;
50789;SDS011;37287;47.554;7.844;2022-09-06T12:56:32;6.43;;;2.58;;
50789;SDS011;37287;47.554;7.844;2022-09-06T12:59:16;8.00;;;2.72;;
50789;SDS011;37287;47.554;7.844;2022-09-06T13:04:42;11.02;;;2.60;;
50789;SDS011;37287;47.554;7.844;2022-09-06T13:07:19;4.72;;;2.00;;
50789;SDS011;37287;47.554;7.844;2022-09-06T13:09:49;3.42;;;1.90;;
50789;SDS011;37287;47.554;7.844;2022-09-06T13:12:27;5.22;;;1.67;;
50789;SDS011;37287;47.554;7.844;2022-09-06T13:15:10;4.18;;;1.92;;
50789;SDS011;37287;47.554;7.844;2022-09-06T13:17:42;4.30;;;1.60;;
50789;SDS011;37287;47.554;7.844;2022-09-06T13:20:21;6.55;;;1.60;;
50789;SDS011;37287;47.554;7.844;2022-09-06T13:22:52;2.53;;;1.23;;
50789;SDS011;37287;47.554;7.844;2022-09-06T13:25:32;4.78;;;1.50;;
50789;SDS011;37287;47.554;7.844;2022-09-06T13:27:58;3.92;;;1.30;;
50789;SDS011;37287;47.554;7.844;2022-09-06T13:30:34;2.17;;;1.20;;
50789;SDS011;37287;47.554;7.844;2022-09-06T13:33:03;4.20;;;1.38;;
50789;SDS011;37287;47.554;7.844;2022-09-06T13:35:33;3.20;;;1.40;;
50789;SDS011;37287;47.554;7.844;2022-09-06T13:38:18;2.00;;;1.50;;
50789;SDS011;37287;47.554;7.844;2022-09-06T13:40:49;2.90;;;1.27;;
50789;SDS011;37287;47.554;7.844;2022-09-06T13:43:41;4.45;;;1.70;;
50789;SDS011;37287;47.554;7.844;2022-09-06T13:46:10;3.00;;;1.60;;
50789;SDS011;37287;47.554;7.844;2022-09-06T13:48:37;3.00;;;1.27;;
50789;SDS011;37287;47.554;7.844;2022-09-06T13:51:10;5.35;;;1.40;;
50789;SDS011;37287;47.554;7.844;2022-09-06T13:53:37;4.40;;;1.52;;
50789;SDS011;37287;47.554;7.844;2022-09-06T13:56:03;3.40;;;1.65;;
50789;SDS011;37287;47.554;7.844;2022-09-06T13:58:34;3.67;;;1.65;;
50789;SDS011;37287;47.554;7.844;2022-09-06T14:01:03;3.35;;;1.60;;
50789;SDS011;37287;47.554;7.844;2022-09-06T14:03:36;2.33;;;1.23;;
50789;SDS011;37287;47.554;7.844;2022-09-06T14:06:12;1.35;;;1.25;;
50789;SDS011;37287;47.554;7.844;2022-09-06T14:08:38;2.00;;;1.20;;
50789;SDS011;37287;47.554;7.844;2022-09-06T14:11:25;2.45;;;1.10;;
50789;SDS011;37287;47.554;7.844;2022-09-06T14:13:51;2.40;;;1.15;;
50789;SDS011;37287;47.554;7.844;2022-09-06T14:16:20;4.63;;;1.60;;
50789;SDS011;37287;47.554;7.844;2022-09-06T14:18:47;3.08;;;1.40;;
50789;SDS011;37287;47.554;7.844;2022-09-06T14:21:14;6.30;;;1.58;;
50789;SDS011;37287;47.554;7.844;2022-09-06T14:23:41;2.13;;;1.30;;
50789;SDS011;37287;47.554;7.844;2022-09-06T14:26:13;4.20;;;1.63;;
50789;SDS011;37287;47.554;7.844;2022-09-06T14:28:40;7.60;;;1.40;;
50789;SDS011;37287;47.554;7.844;2022-09-06T14:31:11;6.40;;;1.60;;
50789;SDS011;37287;47.554;7.844;2022-09-06T14:33:40;5.15;;;1.70;;
50789;SDS011;37287;47.554;7.844;2022-09-06T14:36:08;3.63;;;1.50;;
50789;SDS011;37287;47.554;7.844;2022-09-06T14:38:38;4.15;;;1.50;;
50789;SDS011;37287;47.554;7.844;2022-09-06T14:41:06;16.83;;;2.30;;
50789;SDS011;37287;47.554;7.844;2022-09-06T14:43:34;7.15;;;1.75;;
50789;SDS011;37287;47.554;7.844;2022-09-06T14:46:08;3.13;;;1.70;;
50789;SDS011;37287;47.554;7.844;2022-09-06T14:48:40;3.88;;;1.95;;
50789;SDS011;37287;47.554;7.844;2022-09-06T14:51:14;3.20;;;1.80;;
50789;SDS011;37287;47.554;7.844;2022-09-06T14:53:51;11.43;;;1.90;;
50789;SDS011;37287;47.554;7.844;2022-09-06T14:56:20;6.22;;;2.10;;
50789;SDS011;37287;47.554;7.844;2022-09-06T14:58:48;5.38;;;1.50;;
50789;SDS011;37287;47.554;7.844;2022-09-06T15:01:21;3.20;;;1.30;;
50789;SDS011;37287;47.554;7.844;2022-09-06T15:03:50;7.47;;;1.95;;
50789;SDS011;37287;47.554;7.844;2022-09-06T15:06:21;4.13;;;1.40;;
50789;SDS011;37287;47.554;7.844;2022-09-06T15:08:48;3.17;;;1.20;;
50789;SDS011;37287;47.554;7.844;2022-09-06T15:14:05;2.20;;;1.20;;
50789;SDS011;37287;47.554;7.844;2022-09-06T15:16:34;1.73;;;0.90;;
50789;SDS011;37287;47.554;7.844;2022-09-06T15:19:01;1.10;;;0.93;;
50789;SDS011;37287;47.554;7.844;2022-09-06T15:21:30;2.45;;;1.13;;
50789;SDS011;37287;47.554;7.844;2022-09-06T15:23:57;1.58;;;1.20;;
50789;SDS011;37287;47.554;7.844;2022-09-06T15:26:25;1.27;;;0.95;;
50789;SDS011;37287;47.554;7.844;2022-09-06T15:28:52;1.70;;;0.95;;
50789;SDS011;37287;47.554;7.844;2022-09-06T15:31:19;1.63;;;0.93;;
50789;SDS011;37287;47.554;7.844;2022-09-06T15:33:46;2.67;;;1.10;;
50789;SDS011;37287;47.554;7.844;2022-09-06T15:36:19;3.40;;;1.10;;
50789;SDS011;37287;47.554;7.844;2022-09-06T15:38:47;4.47;;;1.20;;
50789;SDS011;37287;47.554;7.844;2022-09-06T15:41:20;5.07;;;1.35;;
50789;SDS011;37287;47.554;7.844;2022-09-06T15:43:52;4.28;;;1.30;;
50789;SDS011;37287;47.554;7.844;2022-09-06T15:49:29;3.70;;;1.20;;
50789;SDS011;37287;47.554;7.844;2022-09-06T15:51:58;2.13;;;1.10;;
50789;SDS011;37287;47.554;7.844;2022-09-06T15:54:26;4.25;;;1.10;;
50789;SDS011;37287;47.554;7.844;2022-09-06T15:57:26;4.55;;;1.52;;
50789;SDS011;37287;47.554;7.844;2022-09-06T15:59:54;2.10;;;1.40;;
50789;SDS011;37287;47.554;7.844;2022-09-06T16:02:20;3.80;;;1.70;;
50789;SDS011;37287;47.554;7.844;2022-09-06T16:04:49;2.30;;;1.38;;
50789;SDS011;37287;47.554;7.844;2022-09-06T16:07:16;5.22;;;1.70;;
50789;SDS011;37287;47.554;7.844;2022-09-06T16:09:43;6.45;;;1.70;;
50789;SDS011;37287;47.554;7.844;2022-09-06T16:12:10;6.07;;;1.95;;
50789;SDS011;37287;47.554;7.844;2022-09-06T16:14:37;6.05;;;1.50;;
50789;SDS011;37287;47.554;7.844;2022-09-06T16:17:04;6.32;;;1.70;;
50789;SDS011;37287;47.554;7.844;2022-09-06T16:19:32;5.07;;;2.00;;
50789;SDS011;37287;47.554;7.844;2022-09-06T16:21:59;2.72;;;1.60;;
50789;SDS011;37287;47.554;7.844;2022-09-06T16:24:26;3.72;;;1.35;;
50789;SDS011;37287;47.554;7.844;2022-09-06T16:26:53;2.65;;;1.77;;
50789;SDS011;37287;47.554;7.844;2022-09-06T16:29:20;1.25;;;1.13;;
50789;SDS011;37287;47.554;7.844;2022-09-06T16:31:46;3.28;;;1.70;;
50789;SDS011;37287;47.554;7.844;2022-09-06T16:34:22;2.78;;;1.63;;
50789;SDS011;37287;47.554;7.844;2022-09-06T16:36:48;5.43;;;1.80;;
50789;SDS011;37287;47.554;7.844;2022-09-06T16:39:15;4.97;;;1.55;;
50789;SDS011;37287;47.554;7.844;2022-09-06T16:41:42;2.08;;;1.10;;
50789;SDS011;37287;47.554;7.844;2022-09-06T16:44:11;4.45;;;1.75;;
50789;SDS011;37287;47.554;7.844;2022-09-06T16:46:45;2.53;;;1.38;;
50789;SDS011;37287;47.554;7.844;2022-09-06T16:49:13;4.10;;;1.80;;
50789;SDS011;37287;47.554;7.844;2022-09-06T16:51:42;5.63;;;1.70;;
50789;SDS011;37287;47.554;7.844;2022-09-06T16:54:09;3.78;;;1.70;;
50789;SDS011;37287;47.554;7.844;2022-09-06T16:56:41;2.85;;;1.50;;
50789;SDS011;37287;47.554;7.844;2022-09-06T16:59:08;3.60;;;1.83;;
50789;SDS011;37287;47.554;7.844;2022-09-06T17:01:36;5.22;;;1.70;;
50789;SDS011;37287;47.554;7.844;2022-09-06T17:04:07;2.95;;;1.50;;
50789;SDS011;37287;47.554;7.844;2022-09-06T17:06:34;5.35;;;1.92;;
50789;SDS011;37287;47.554;7.844;2022-09-06T17:09:12;4.13;;;1.50;;